Latest Weather Observations for Cape Byron

IDN60801

Issued at 7:02 pm EST Wednesday 26 June 2019 (issued every 10 minutes, with the page automatically refreshed every 10 minutes)

About weather observations | Map of weather stations | Latest weather observations for NSW | Other Formats
Station Details ID: 058216 Name: CAPE BYRON AWS Lat: -28.64 Lon: 153.64 Height: 95.0 m
Data from the previous 72 hours. | See also: Recent months at Cape Byron
Date/Time
EST
Temp
°C
App
Temp
°C
Dew
Point
°C
Rel
Hum
%
Delta-T
°C
Wind Press
QNH
hPa
Press
MSL
hPa
Rain since
9am
mm
Dir  Spd
km/h
Gust
km/h
Spd
kts
Gust
kts
26/07:00pm 18.6 13.1 12.6 68 3.3 E 33 43 18 23 1029.2 1029.1 0.0
26/06:30pm 18.5 13.4 13.8 74 2.7 E 33 41 18 22 1029.1 1029.0 0.0
26/06:00pm 18.9 13.6 12.4 66 3.6 ESE 32 39 17 21 1028.9 1028.8 0.0
26/05:30pm 18.8 12.7 11.9 64 3.8 ESE 35 43 19 23 1028.5 1028.3 0.0
26/05:00pm 18.8 12.2 11.4 62 4.0 ESE 37 48 20 26 1028.2 1028.0 0.0
26/04:30pm 18.6 12.1 11.7 64 3.8 ESE 37 46 20 25 1027.9 1027.7 0.0
26/04:00pm 18.8 12.6 11.4 62 4.0 ESE 35 43 19 23 1028.2 1028.0 0.0
26/03:30pm 18.8 12.7 11.6 63 4.0 ESE 35 44 19 24 1028.1 1027.9 0.0
26/03:00pm 19.0 13.1 10.6 58 4.5 ESE 32 39 17 21 1028.3 1028.1 0.0
26/02:30pm 18.8 12.9 10.6 59 4.4 SE 32 35 17 19 1028.5 1028.3 0.0
26/02:17pm 18.9 14.2 11.9 64 3.9 SE 28 39 15 21 1028.5 1028.3 0.0
26/02:00pm 17.9 16.9 14.6 81 1.9 SSW 13 20 7 11 1028.5 1028.3 0.0
26/01:30pm 17.8 15.7 14.7 82 1.8 SW 19 24 10 13 1028.7 1028.5 0.0
26/01:00pm 17.2 15.0 14.8 86 1.4 SW 20 28 11 15 1028.9 1028.8 0.0
26/12:30pm 17.0 14.9 14.6 86 1.4 SW 19 24 10 13 1029.2 1029.1 0.0
26/12:00pm 17.0 15.2 13.3 79 2.1 SW 15 22 8 12 1029.8 1029.7 0.0
26/11:30am 16.5 15.0 14.2 86 1.3 SW 15 24 8 13 1029.8 1029.7 0.0
26/11:00am 16.5 14.2 14.0 85 1.4 SW 19 26 10 14 1030.1 1030.0 0.0
26/10:30am 16.3 13.9 14.3 88 1.1 SW 20 24 11 13 1030.2 1030.1 0.0
26/10:00am 15.2 12.4 13.2 88 1.1 SW 20 26 11 14 1030.6 1030.5 0.0
26/09:30am 14.2 11.0 13.1 93 0.6 SW 22 28 12 15 1030.6 1030.5 0.0
26/09:00am 13.7 10.4 12.9 95 0.4 WSW 22 28 12 15 1030.7 1030.6 57.0
26/08:30am 13.3 9.6 12.8 97 0.3 WSW 24 30 13 16 1030.5 1030.4 57.0
26/08:00am 13.1 8.6 12.6 97 0.3 WSW 28 35 15 19 1030.1 1030.0 57.0
26/07:30am 14.3 12.2 13.7 96 0.3 SW 17 22 9 12 1029.8 1029.7 57.0
26/07:00am 15.3 12.2 13.5 89 1.0 SSW 22 39 12 21 1029.3 1029.2 52.4
26/06:30am 16.3 13.3 14.8 91 0.9 S 24 30 13 16 1029.2 1029.1 52.2
26/06:00am 15.6 11.2 15.1 97 0.3 SE 32 41 17 22 1029.2 1029.1 51.6
26/05:55am 15.5 10.9 15.0 97 0.3 ESE 33 56 18 30 1029.1 1029.0 51.6
26/05:50am 15.3 10.2 14.8 97 0.3 SE 35 56 19 30 1029.0 1028.9 51.2
26/05:47am 15.5 11.4 15.0 97 0.3 S 30 56 16 30 1028.7 1028.5 51.0
26/05:46am 15.4 11.6 14.8 96 0.3 S 28 50 15 27 1028.9 1028.8 51.0
26/05:30am 15.6 11.0 14.5 93 0.6 SSW 32 37 17 20 1028.7 1028.5 46.6
26/05:10am 15.7 11.7 14.2 91 0.9 SSE 28 39 15 21 1028.7 1028.5 46.2
26/05:00am 15.6 9.6 14.5 93 0.6 SE 39 50 21 27 1028.7 1028.5 45.6
26/04:38am 16.0 10.9 14.7 92 0.7 SE 35 46 19 25 1028.5 1028.3 44.6
26/04:30am 15.9 10.0 14.8 93 0.6 ESE 39 48 21 26 1028.3 1028.1 44.2
26/04:00am 15.6 9.3 14.6 94 0.6 ESE 41 54 22 29 1028.0 1027.8 41.8
26/03:30am 15.1 9.9 14.5 96 0.3 E 35 61 19 33 1027.6 1027.4 40.4
26/03:28am 15.1 10.5 14.5 96 0.3 E 32 50 17 27 1027.9 1027.7 40.4
26/03:20am 15.3 10.1 14.5 95 0.5 ESE 35 46 19 25 1028.2 1028.0 38.8
26/03:12am 15.4 10.1 14.3 93 0.6 SSE 35 46 19 25 1028.1 1027.9 36.4
26/03:00am 14.9 8.6 13.6 92 0.7 SSE 39 50 21 27 1028.1 1027.9 35.8
26/02:49am 15.2 10.4 14.1 93 0.6 SE 32 46 17 25 1028.2 1028.0 35.2
26/02:38am 15.8 13.3 15.2 96 0.3 ESE 22 43 12 23 1028.3 1028.1 34.4
26/02:30am 15.2 14.5 14.4 95 0.5 ESE 11 17 6 9 1028.4 1028.2 32.8
26/02:00am 15.2 12.2 13.6 90 0.9 ENE 22 35 12 19 1028.1 1027.9 25.8
26/01:45am 15.8 10.4 14.0 89 1.0 E 35 56 19 30 1028.0 1027.8 25.4
26/01:30am 16.1 9.2 13.9 87 1.2 ESE 43 54 23 29 1028.0 1027.8 25.2
26/01:23am 16.0 11.7 14.5 91 0.9 SE 30 50 16 27 1027.9 1027.7 25.2
26/01:21am 15.7 12.1 14.2 91 0.9 SE 26 50 14 27 1028.1 1027.9 25.2
26/01:20am 15.7 13.0 14.6 93 0.6 SE 22 44 12 24 1028.2 1028.0 25.2
26/01:00am 14.7 12.4 14.1 96 0.3 SSW 19 28 10 15 1028.6 1028.4 19.4
26/12:30am 15.8 14.1 14.7 93 0.6 SSE 17 33 9 18 1028.6 1028.4 13.8
26/12:00am 15.5 11.8 14.0 91 0.8 E 26 44 14 24 1028.4 1028.2 7.4
 
Date/Time
EST
Temp
°C
App
Temp
°C
Dew
Point
°C
Rel
Hum
%
Delta-T
°C
Wind Press
QNH
hPa
Press
MSL
hPa
Rain since
9am
mm
Dir  Spd
km/h
Gust
km/h
Spd
kts
Gust
kts
25/11:30pm 16.4 11.4 14.1 86 1.3 E 33 56 18 30 1028.2 1028.0 6.6
25/11:24pm 16.6 11.0 14.4 87 1.3 E 37 56 20 30 1028.1 1027.9 6.6
25/11:00pm 16.6 11.1 13.7 83 1.6 E 35 48 19 26 1028.2 1028.0 6.4
25/10:30pm 16.4 8.9 13.9 85 1.4 E 46 56 25 30 1028.1 1027.9 6.4
25/10:13pm 15.9 7.0 14.3 90 0.9 E 54 72 29 39 1028.2 1028.0 6.4
25/10:03pm 16.8 9.2 13.7 82 1.8 ESE 46 72 25 39 1027.5 1027.3 5.0
25/10:01pm 17.6 11.4 15.0 85 1.5 ESE 41 63 22 34 1027.8 1027.6 5.0
25/10:00pm 17.8 11.7 15.2 85 1.5 ESE 41 50 22 27 1028.1 1027.9 5.0
25/09:30pm 17.1 9.3 14.2 83 1.7 E 48 61 26 33 1027.9 1027.7 5.0
25/09:00pm 17.2 8.5 12.7 75 2.5 ESE 50 65 27 35 1027.8 1027.6 5.0
25/08:55pm 17.6 9.9 14.3 81 1.9 ESE 48 65 26 35 1027.6 1027.4 5.0
25/08:46pm 17.1 12.5 13.6 80 2.0 E 30 44 16 24 1027.8 1027.6 5.0
25/08:39pm 16.6 10.5 14.1 85 1.4 E 39 56 21 30 1028.0 1027.8 4.8
25/08:32pm 16.8 11.4 13.9 83 1.7 ESE 35 56 19 30 1027.6 1027.4 4.8
25/08:31pm 16.9 12.0 14.4 85 1.4 ESE 33 56 18 30 1027.7 1027.5 4.8
25/08:30pm 17.0 12.1 14.3 84 1.6 SE 33 48 18 26 1027.8 1027.6 4.8
25/08:22pm 17.4 11.1 13.5 78 2.2 SE 39 56 21 30 1028.1 1027.9 4.2
25/08:18pm 17.9 11.4 12.8 72 2.9 ESE 39 56 21 30 1028.1 1027.9 3.8
25/08:00pm 18.6 11.8 13.2 71 3.0 E 41 50 22 27 1027.7 1027.5 3.8
25/07:30pm 18.3 10.6 11.6 65 3.7 E 43 50 23 27 1027.5 1027.3 3.8
25/07:00pm 18.6 10.5 12.1 66 3.6 ESE 46 59 25 32 1027.1 1026.9 3.8
25/06:30pm 17.5 11.9 13.2 76 2.4 E 35 44 19 24 1026.9 1026.7 3.8
25/06:00pm 17.8 9.2 12.9 73 2.7 E 50 67 27 36 1026.2 1026.1 3.8
25/05:56pm 18.1 10.4 13.2 73 2.8 E 46 65 25 35 1026.2 1026.1 3.8
25/05:30pm 17.6 10.5 13.3 76 2.4 E 43 52 23 28 1026.4 1026.3 3.8
25/05:24pm 17.5 12.7 14.0 80 2.0 E 32 52 17 28 1026.5 1026.4 3.8
25/05:03pm 17.4 10.3 13.5 78 2.2 ESE 43 65 23 35 1026.7 1026.6 3.8
25/05:00pm 17.4 8.9 11.9 70 3.0 ESE 48 65 26 35 1026.7 1026.6 3.8
25/04:56pm 16.8 7.0 11.3 70 3.0 ESE 54 65 29 35 1026.5 1026.4 3.8
25/04:51pm 17.7 9.3 13.6 77 2.3 E 50 65 27 35 1026.1 1026.0 3.8
25/04:34pm 17.5 11.5 13.4 77 2.3 E 37 56 20 30 1026.3 1026.2 3.8
25/04:30pm 17.0 11.5 12.3 74 2.6 ESE 33 44 18 24 1026.4 1026.3 3.8
25/04:00pm 17.7 11.4 13.6 77 2.3 ESE 39 50 21 27 1026.5 1026.4 3.8
25/03:32pm 17.0 9.4 13.5 80 2.0 ESE 46 65 25 35 1026.2 1026.1 3.8
25/03:30pm 16.9 10.1 14.4 85 1.4 E 43 56 23 30 1026.2 1026.1 3.8
25/03:21pm 16.5 12.5 14.0 85 1.4 E 28 50 15 27 1026.0 1025.9 3.8
25/03:00pm 16.4 13.5 15.1 92 0.8 E 24 37 13 20 1026.3 1026.2 3.8
25/02:30pm 15.3 8.7 13.8 91 0.8 ESE 41 67 22 36 1026.4 1026.3 3.6
25/02:27pm 15.3 8.8 14.0 92 0.7 E 41 67 22 36 1026.4 1026.3 3.6
25/02:23pm 15.9 10.7 14.6 92 0.7 E 35 67 19 36 1025.9 1025.8 3.0
25/02:21pm 15.8 11.5 14.5 92 0.7 E 30 61 16 33 1026.3 1026.2 3.0
25/02:00pm 15.7 11.5 14.6 93 0.6 E 30 41 16 22 1026.5 1026.4 2.8
25/01:48pm 15.5 6.9 13.9 90 0.9 ESE 52 70 28 38 1026.4 1026.3 2.4
25/01:38pm 17.9 11.3 13.8 77 2.3 ESE 41 65 22 35 1025.9 1025.8 0.2
25/01:35pm 19.0 14.1 14.3 74 2.7 E 33 57 18 31 1026.3 1026.2 0.2
25/01:30pm 18.7 13.9 14.0 74 2.7 E 32 39 17 21 1026.3 1026.2 0.2
25/01:00pm 18.2 12.1 12.9 71 3.0 E 37 44 20 24 1026.5 1026.4 0.2
25/12:30pm 17.1 10.0 14.0 82 1.8 E 44 65 24 35 1026.4 1026.3 0.2
25/12:17pm 18.7 13.3 14.0 74 2.7 E 35 54 19 29 1026.5 1026.4 0.2
25/12:00pm 17.6 10.2 13.1 75 2.5 E 44 54 24 29 1026.9 1026.7 0.2
25/11:49am 17.2 10.0 13.7 80 2.0 ESE 44 56 24 30 1026.7 1026.6 0.2
25/11:45am 17.0 9.4 13.7 81 1.9 ESE 46 65 25 35 1027.2 1027.0 0.2
25/11:30am 17.4 10.6 14.3 82 1.8 E 43 61 23 33 1027.1 1026.9 0.0
25/11:23am 17.5 11.3 13.8 79 2.1 E 39 61 21 33 1026.9 1026.7 0.0
25/11:19am 18.1 13.6 15.0 82 1.8 ESE 32 43 17 23 1027.2 1027.0 0.0
25/11:11am 17.1 11.1 13.2 78 2.2 ESE 37 59 20 32 1027.6 1027.4 0.0
25/11:09am 16.9 10.2 12.4 75 2.5 ESE 39 59 21 32 1027.6 1027.4 0.0
25/11:06am 18.9 13.1 14.0 73 2.8 E 37 56 20 30 1027.2 1027.0 0.0
25/11:00am 18.5 12.4 13.1 71 3.0 E 37 46 20 25 1027.4 1027.2 0.0
25/10:30am 18.5 11.1 13.1 71 3.1 E 44 56 24 30 1027.4 1027.2 0.0
25/10:00am 18.2 11.1 13.5 74 2.7 E 43 54 23 29 1027.7 1027.5 0.0
25/09:30am 17.5 10.1 14.2 81 1.9 E 46 61 25 33 1027.2 1027.0 0.0
25/09:00am 16.2 8.9 14.4 89 1.0 ESE 46 61 25 33 1027.4 1027.2 54.2
25/08:30am 16.5 9.3 13.8 84 1.5 SE 44 70 24 38 1027.3 1027.1 54.2
25/08:13am 16.1 11.0 13.8 86 1.3 SSE 33 56 18 30 1027.3 1027.1 54.0
25/08:00am 14.6 8.7 12.5 87 1.1 SE 35 50 19 27 1027.5 1027.3 54.0
25/07:36am 16.9 11.6 14.2 84 1.5 SE 35 63 19 34 1027.2 1027.0 52.8
25/07:30am 17.0 11.3 12.9 77 2.3 SE 35 50 19 27 1027.1 1026.9 52.6
25/07:00am 16.9 9.3 13.6 81 1.9 ESE 46 56 25 30 1026.5 1026.4 52.6
25/06:30am 17.1 9.1 13.4 79 2.1 SE 48 57 26 31 1026.5 1026.4 52.6
25/06:00am 17.1 9.8 12.8 76 2.4 ESE 43 56 23 30 1025.8 1025.7 52.6
25/05:40am 17.2 10.6 12.7 75 2.5 ESE 39 52 21 28 1025.9 1025.8 52.6
25/05:36am 17.1 10.3 12.0 72 2.8 ESE 39 56 21 30 1026.0 1025.9 52.6
25/05:30am 16.8 9.5 12.9 78 2.2 E 43 56 23 30 1025.8 1025.7 52.6
25/05:29am 16.8 9.6 13.1 79 2.1 E 43 52 23 28 1025.8 1025.7 52.6
25/05:00am 15.6 5.8 13.4 87 1.2 E 57 76 31 41 1025.1 1025.0 52.6
25/04:48am 16.6 9.8 14.2 86 1.4 SE 43 70 23 38 1024.7 1024.6 52.4
25/04:42am 17.1 13.1 14.0 82 1.8 SE 28 54 15 29 1025.3 1025.2 52.4
25/04:30am 16.3 13.1 13.0 81 1.8 SE 22 33 12 18 1025.4 1025.3 52.4
25/04:00am 16.3 11.5 14.1 87 1.2 ESE 32 57 17 31 1025.1 1025.0 52.2
25/03:58am 16.8 12.3 13.7 82 1.8 ESE 30 50 16 27 1025.1 1025.0 52.0
25/03:30am 17.4 10.8 12.7 74 2.6 ESE 39 48 21 26 1025.1 1025.0 52.0
25/03:00am 17.2 10.2 11.2 68 3.2 ESE 39 46 21 25 1025.4 1025.3 52.0
25/02:41am 15.8 12.6 13.1 84 1.5 S 22 48 12 26 1025.2 1025.1 52.0
25/02:30am 13.9 11.8 12.5 91 0.8 S 15 24 8 13 1025.5 1025.4 52.0
25/02:00am 12.5 9.2 11.6 94 0.5 SW 20 28 11 15 1025.6 1025.5 52.0
25/01:30am 12.9 9.6 11.5 91 0.7 SW 20 32 11 17 1025.6 1025.5 52.0
25/01:00am 13.4 10.2 11.8 90 0.9 SW 20 26 11 14 1025.7 1025.6 52.0
25/12:30am 13.2 9.8 11.3 88 1.0 SW 20 28 11 15 1025.7 1025.6 52.0
25/12:00am 17.0 11.0 12.1 73 2.7 ESE 35 43 19 23 1025.5 1025.4 52.0
 
Date/Time
EST
Temp
°C
App
Temp
°C
Dew
Point
°C
Rel
Hum
%
Delta-T
°C
Wind Press
QNH
hPa
Press
MSL
hPa
Rain since
9am
mm
Dir  Spd
km/h
Gust
km/h
Spd
kts
Gust
kts
24/11:37pm 17.7 10.9 11.9 69 3.2 ESE 39 59 21 32 1025.1 1025.0 52.0
24/11:30pm 17.5 10.8 11.1 66 3.5 ESE 37 48 20 26 1025.3 1025.2 52.0
24/11:00pm 17.3 10.6 10.9 66 3.4 ESE 37 48 20 26 1025.3 1025.2 52.0
24/10:30pm 17.1 9.9 12.0 72 2.8 ESE 41 54 22 29 1025.6 1025.5 52.0
24/10:00pm 16.2 9.4 11.8 75 2.4 ESE 39 54 21 29 1025.3 1025.2 52.0
24/09:58pm 16.4 9.7 12.2 76 2.3 SE 39 54 21 29 1025.2 1025.1 52.0
24/09:30pm 15.6 8.3 11.4 76 2.3 SE 41 52 22 28 1025.3 1025.2 51.8
24/09:00pm 15.6 10.0 12.2 80 1.9 SSE 33 43 18 23 1025.8 1025.7 51.8
24/08:30pm 13.1 10.2 12.9 99 0.1 SSW 20 32 11 17 1026.3 1026.2 51.6
24/08:00pm 12.5 7.1 12.2 98 0.2 SW 32 41 17 22 1025.5 1025.4 46.8
24/07:30pm 13.2 8.7 12.6 96 0.3 SW 28 39 15 21 1025.5 1025.4 46.6
24/07:19pm 14.2 9.1 13.7 97 0.3 S 33 48 18 26 1025.6 1025.5 46.6
24/07:11pm 14.2 9.4 14.0 99 0.1 SSW 32 54 17 29 1025.4 1025.3 46.6
24/07:08pm 13.7 9.5 13.5 99 0.1 SSW 28 54 15 29 1025.4 1025.3 46.6
24/07:00pm 12.9 8.8 12.7 99 0.1 SW 26 33 14 18 1025.4 1025.3 46.6
24/06:30pm 12.1 7.4 11.9 99 0.1 WSW 28 37 15 20 1024.8 1024.7 41.6
24/06:00pm 12.3 7.6 12.0 98 0.2 SW 28 41 15 22 1024.8 1024.7 39.2
24/05:30pm 11.9 6.3 11.6 98 0.2 SW 32 39 17 21 1024.4 1024.3 37.8
24/05:00pm 12.2 7.5 11.9 98 0.2 SW 28 33 15 18 1024.5 1024.4 35.4
24/04:30pm 12.5 7.0 12.0 97 0.3 SSW 32 44 17 24 1024.7 1024.6 34.4
24/04:28pm 12.8 7.3 12.3 97 0.3 SSW 33 44 18 24 1024.7 1024.6 34.4
24/04:17pm 13.0 7.8 12.8 99 0.1 S 32 48 17 26 1024.7 1024.6 33.6
24/04:00pm 11.7 8.0 11.5 99 0.1 SW 22 33 12 18 1024.7 1024.6 32.4
24/03:30pm 11.5 8.3 11.3 99 0.1 WSW 19 22 10 12 1024.9 1024.8 24.8
24/03:00pm 11.3 8.0 11.0 98 0.2 SW 19 24 10 13 1024.7 1024.6 21.2
24/02:30pm 11.2 7.7 11.0 99 0.1 WSW 20 24 11 13 1023.9 1023.8 19.8
24/02:00pm 11.4 7.6 11.2 99 0.1 SW 22 28 12 15 1023.9 1023.8 17.8
24/01:30pm 11.3 7.9 11.1 99 0.1 SW 20 30 11 16 1024.1 1024.0 13.6
24/01:00pm 11.3 7.1 11.1 99 0.1 SW 24 33 13 18 1023.9 1023.8 10.4
24/12:30pm 11.4 6.8 11.2 99 0.1 SW 26 35 14 19 1023.9 1023.8 7.2
24/12:00pm 11.2 6.9 10.9 98 0.2 SW 24 32 13 17 1024.3 1024.2 4.6
24/11:30am 11.0 5.0 10.7 98 0.2 SW 33 46 18 25 1024.0 1023.9 3.8
24/11:00am 10.8 4.3 10.3 97 0.3 SW 35 50 19 27 1024.3 1024.2 2.6
24/10:40am 10.7 5.5 10.1 96 0.3 SW 28 46 15 25 1023.7 1023.6 1.6
24/10:30am 10.5 6.9 9.7 95 0.4 WSW 19 28 10 15 1024.3 1024.2 1.2
24/10:00am 10.6 4.2 9.5 93 0.6 WSW 33 44 18 24 1024.5 1024.4 1.0
24/09:30am 10.3 5.3 9.4 94 0.5 WSW 26 32 14 17 1024.6 1024.5 1.0
24/09:00am 10.6 6.8 9.2 91 0.7 SW 19 26 10 14 1025.0 1024.9 0.2
24/08:30am 10.8 5.2 8.9 88 0.9 SW 28 41 15 22 1024.2 1024.1 0.0
24/08:00am 10.7 3.3 8.5 86 1.1 SW 37 48 20 26 1023.8 1023.7 0.0
24/07:30am 10.4 3.3 8.0 85 1.2 WSW 35 48 19 26 1023.1 1023.0 0.0
24/07:00am 10.2 3.1 8.1 87 1.0 WSW 35 46 19 25 1023.1 1023.0 0.0
24/06:30am 10.1 3.6 8.0 87 1.0 WSW 32 43 17 23 1022.9 1022.8 0.0
24/06:00am 10.1 3.5 7.7 85 1.2 WSW 32 41 17 22 1022.6 1022.5 0.0
24/05:30am 10.3 3.7 7.9 85 1.2 WSW 32 43 17 23 1022.2 1022.1 0.0
24/05:00am 10.5 3.9 8.4 87 1.0 WSW 33 43 18 23 1022.0 1021.9 0.0
24/04:30am 10.7 3.8 8.8 88 0.9 SW 35 43 19 23 1021.8 1021.7 0.0
24/04:00am 10.8 3.9 8.9 88 0.9 SW 35 44 19 24 1021.8 1021.7 0.0
24/03:30am 10.7 3.7 8.5 86 1.1 WSW 35 43 19 23 1022.0 1021.9 0.0
24/03:00am 10.7 5.0 8.3 85 1.2 WSW 28 39 15 21 1022.0 1021.9 0.0
24/02:30am 11.0 5.6 8.1 82 1.4 WSW 26 35 14 19 1021.9 1021.8 0.0
24/02:00am 11.2 5.8 8.2 82 1.5 WSW 26 35 14 19 1022.0 1021.9 0.0
24/01:30am 11.6 6.7 8.6 82 1.5 WSW 24 33 13 18 1022.1 1022.0 0.0
24/01:00am 11.8 7.1 9.4 85 1.2 WSW 24 32 13 17 1022.3 1022.2 0.0
24/12:30am 12.0 7.3 9.4 84 1.3 WSW 24 33 13 18 1022.5 1022.4 0.0
24/12:00am 12.0 6.8 9.0 82 1.5 WSW 26 35 14 19 1022.5 1022.4 0.0
 
Date/Time
EST
Temp
°C
App
Temp
°C
Dew
Point
°C
Rel
Hum
%
Delta-T
°C
Wind Press
QNH
hPa
Press
MSL
hPa
Rain since
9am
mm
Dir  Spd
km/h
Gust
km/h
Spd
kts
Gust
kts
23/11:30pm 12.1 7.0 9.1 82 1.5 WSW 26 32 14 17 1022.6 1022.5 0.0
23/11:00pm 12.3 7.5 8.8 79 1.7 W 24 30 13 16 1022.8 1022.7 0.0
23/10:30pm 12.7 8.5 9.7 82 1.5 SW 22 28 12 15 1022.6 1022.5 0.0
23/10:00pm 12.9 8.3 9.5 80 1.7 WSW 24 32 13 17 1022.5 1022.4 0.0
23/09:30pm 14.7 10.2 8.6 67 3.1 S 22 30 12 16 1022.1 1022.0 0.0
23/09:00pm 14.1 10.6 8.7 70 2.7 SSE 17 24 9 13 1022.5 1022.4 0.0
23/08:30pm 14.4 8.5 10.4 77 2.1 ESE 32 43 17 23 1022.5 1022.4 0.0
23/08:00pm 14.5 9.2 9.9 74 2.4 SSE 28 37 15 20 1023.0 1022.9 0.0
23/07:30pm 15.0 10.2 11.6 80 1.8 ESE 28 41 15 22 1022.9 1022.8 0.0
23/07:11pm 15.2 10.8 11.6 79 1.9 ESE 26 43 14 23 1022.7 1022.6 0.0

Other formats

Comma delimited format used in spreadsheet applications
http://www.bom.gov.au/fwo/IDN60801/IDN60801.94599.axf

JavaScript Object Notation format (JSON) in row-major order
http://www.bom.gov.au/fwo/IDN60801/IDN60801.94599.json

Data quality

Most of these data are generated automatically and are frequently updated. Quality checks on data are not normally performed. It is possible for incorrect values to appear. Refer to information at About Latest Weather Observations and please check the disclaimer before using these data.